Bielefeld Airport


Codes: EDLI/BFE
Name: Bielefeld Airport
City: Bielefeld
Country: Germany
Elevation: 433 ft.
Website:
Wikipedia:

Photos at Bielefeld Airport


   Photos courtesy of SpottingLog. You can add your own sightings and photos by signing up for a free trial today.



No photos found.

Weather at Bielefeld Airport


Time (UTC)DescriptionTempratureWindCloud coverageVisibilityPressureHumidity
17-Jun-2024 06:00Overcast Clouds14°C7 mph, S100%10000m1010hPa87%
17-Jun-2024 09:00Light Rain16°C11 mph, SW84%9043m1011hPa83%
17-Jun-2024 12:00Light Rain17°C9 mph, SW87%10000m1013hPa86%
17-Jun-2024 15:00Light Rain19°C11 mph, W90%10000m1013hPa66%
17-Jun-2024 18:00Light Rain17°C4 mph, W85%10000m1013hPa85%
17-Jun-2024 21:00Light Rain13°C2 mph, SW100%10000m1015hPa91%
18-Jun-2024 00:00Overcast Clouds12°C2 mph, S97%10000m1015hPa94%
18-Jun-2024 03:00Overcast Clouds12°C2 mph, S89%10000m1015hPa95%
18-Jun-2024 06:00Overcast Clouds15°C2 mph, S94%10000m1016hPa86%
18-Jun-2024 09:00Overcast Clouds20°C0 mph, SW98%10000m1015hPa63%
18-Jun-2024 12:00Overcast Clouds23°C2 mph, NW91%10000m1014hPa51%
18-Jun-2024 15:00Moderate Rain16°C2 mph, N100%10000m1013hPa93%
18-Jun-2024 18:00Heavy Intensity Rain15°C4 mph, N100%8948m1014hPa99%
18-Jun-2024 21:00Light Rain14°C4 mph, NE100%10000m1014hPa98%
19-Jun-2024 00:00Light Rain13°C7 mph, N100%10000m1014hPa98%
19-Jun-2024 03:00Light Rain12°C7 mph, N100%10000m1015hPa98%
19-Jun-2024 06:00Light Rain12°C4 mph, N100%10000m1017hPa96%
19-Jun-2024 09:00Broken Clouds16°C7 mph, NW83%10000m1019hPa65%
19-Jun-2024 12:00Scattered Clouds19°C9 mph, NW50%10000m1019hPa51%
19-Jun-2024 15:00Few Clouds19°C11 mph, NW24%10000m1020hPa53%
19-Jun-2024 18:00Scattered Clouds16°C7 mph, N30%10000m1022hPa70%
19-Jun-2024 21:00Scattered Clouds10°C4 mph, N29%10000m1023hPa90%
20-Jun-2024 00:00Scattered Clouds8°C4 mph, NE26%10000m1024hPa90%
20-Jun-2024 03:00Clear Sky7°C2 mph, E5%10000m1023hPa89%
20-Jun-2024 06:00Few Clouds12°C4 mph, NE16%10000m1023hPa66%
20-Jun-2024 09:00Overcast Clouds18°C7 mph, E93%10000m1022hPa48%
20-Jun-2024 12:00Broken Clouds21°C7 mph, E76%10000m1020hPa41%
20-Jun-2024 15:00Overcast Clouds22°C7 mph, SE100%10000m1019hPa44%
20-Jun-2024 18:00Overcast Clouds19°C11 mph, SE100%10000m1017hPa66%
20-Jun-2024 21:00Overcast Clouds16°C7 mph, E98%10000m1016hPa73%
21-Jun-2024 00:00Light Rain16°C9 mph, E99%10000m1013hPa76%
21-Jun-2024 03:00Overcast Clouds16°C7 mph, SE95%10000m1012hPa76%
21-Jun-2024 06:00Light Rain18°C11 mph, SE93%9485m1012hPa93%
21-Jun-2024 09:00Light Rain20°C11 mph, SE100%10000m1009hPa86%
21-Jun-2024 12:00Light Rain18°C7 mph, SW100%10000m1009hPa96%
21-Jun-2024 15:00Moderate Rain18°C7 mph, S100%10000m1009hPa93%
21-Jun-2024 18:00Light Rain17°C11 mph, W100%10000m1010hPa91%
21-Jun-2024 21:00Overcast Clouds14°C11 mph, W100%10000m1011hPa93%
22-Jun-2024 00:00Overcast Clouds12°C9 mph, SW100%10000m1012hPa93%
22-Jun-2024 03:00Scattered Clouds11°C4 mph, SW44%10000m1013hPa96%